createdAt,value
2022-07-25T00:00:56.559Z,76.84
2022-07-25T00:06:04.554Z,77.0
2022-07-25T00:11:13.453Z,77.72
2022-07-25T00:16:20.794Z,77.81
2022-07-25T00:21:28.151Z,77.88
2022-07-25T00:26:36.419Z,77.92
2022-07-25T00:31:43.031Z,77.88
2022-07-25T00:36:52.401Z,78.29
2022-07-25T00:42:00.039Z,78.52
2022-07-25T00:47:07.779Z,78.87001
2022-07-25T00:52:16.156Z,79.56
2022-07-25T00:57:22.960Z,79.66001
2022-07-25T01:02:30.023Z,78.78
2022-07-25T01:07:37.226Z,78.7
2022-07-25T01:12:45.031Z,78.67
2022-07-25T01:17:51.167Z,78.74
2022-07-25T01:22:58.958Z,78.80001
2022-07-25T01:28:07.492Z,79.03
2022-07-25T01:33:14.553Z,79.09
2022-07-25T01:38:22.392Z,79.07
2022-07-25T01:43:30.263Z,79.19
2022-07-25T01:48:38.669Z,79.43
2022-07-25T01:53:46.500Z,79.67
2022-07-25T01:58:55.349Z,80.04001
2022-07-25T02:04:02.875Z,79.81
2022-07-25T02:09:11.530Z,80.14
2022-07-25T02:14:19.293Z,80.43
2022-07-25T02:19:27.630Z,81.75
2022-07-25T02:24:34.521Z,81.22001
2022-07-25T02:29:42.252Z,82.24
2022-07-25T02:34:51.595Z,82.17
2022-07-25T02:39:59.372Z,81.83001
2022-07-25T02:45:07.241Z,82.0
2022-07-25T02:50:15.160Z,82.58
2022-07-25T02:55:22.447Z,82.87001
2022-07-25T03:00:30.222Z,83.12
2022-07-25T03:05:36.903Z,82.42
2022-07-25T03:10:45.061Z,81.92
2022-07-25T03:15:51.950Z,81.82
2022-07-25T03:20:59.786Z,81.67
2022-07-25T03:26:08.708Z,81.88
2022-07-25T03:31:16.742Z,81.78
2022-07-25T03:36:25.101Z,81.81
2022-07-25T03:41:33.508Z,81.78
2022-07-25T03:46:41.512Z,81.90001
2022-07-25T03:51:49.435Z,82.0
2022-07-25T03:56:57.667Z,81.67
2022-07-25T04:02:05.644Z,80.82
2022-07-25T04:07:12.902Z,79.3
2022-07-25T04:12:20.769Z,77.95
2022-07-25T04:17:29.617Z,76.48
2022-07-25T04:22:37.103Z,74.26
2022-07-25T04:27:44.961Z,72.56
2022-07-25T04:32:53.109Z,70.94
2022-07-25T04:38:01.572Z,67.6
2022-07-25T04:43:10.215Z,64.16
2022-07-25T04:48:18.369Z,63.91
2022-07-25T04:53:26.592Z,62.91
2022-07-25T04:58:38.305Z,60.06
2022-07-25T05:03:47.178Z,59.92
2022-07-25T05:08:54.493Z,60.81
2022-07-25T05:14:01.806Z,61.05
2022-07-25T05:19:10.339Z,60.85
2022-07-25T05:24:18.862Z,60.03
2022-07-25T05:29:27.670Z,59.06
2022-07-25T05:34:35.142Z,57.65
2022-07-25T05:39:42.742Z,57.2
2022-07-25T05:44:50.182Z,58.66
2022-07-25T05:49:57.700Z,58.12
2022-07-25T05:55:05.871Z,58.88
2022-07-25T06:00:13.059Z,58.0
2022-07-25T06:05:22.071Z,56.66
2022-07-25T06:10:30.631Z,54.12
2022-07-25T06:15:38.928Z,50.85
2022-07-25T06:20:46.489Z,48.86
2022-07-25T06:25:54.648Z,47.81
2022-07-25T06:31:02.546Z,46.47
2022-07-25T06:36:10.475Z,44.43
2022-07-25T06:41:17.752Z,44.7
2022-07-25T06:46:31.640Z,44.16
2022-07-25T06:51:38.500Z,44.18
2022-07-25T06:56:45.064Z,44.06
2022-07-25T07:01:52.858Z,45.48
2022-07-25T07:06:59.533Z,45.0
2022-07-25T07:12:07.242Z,44.94
2022-07-25T07:17:15.090Z,45.84
2022-07-25T07:22:22.343Z,45.32
2022-07-25T07:27:29.704Z,44.85
2022-07-25T07:32:37.416Z,42.08
2022-07-25T07:37:45.720Z,41.0
2022-07-25T07:42:52.426Z,40.13
2022-07-25T07:47:59.620Z,38.23
2022-07-25T07:53:07.467Z,35.06
2022-07-25T07:58:15.706Z,33.1
2022-07-25T08:03:24.765Z,31.86
2022-07-25T08:08:34.120Z,30.93
2022-07-25T08:13:42.319Z,29.76
2022-07-25T08:18:49.839Z,29.4
2022-07-25T08:23:57.145Z,29.38
2022-07-25T08:29:03.679Z,29.42
2022-07-25T08:34:11.973Z,29.02
2022-07-25T08:39:19.883Z,28.99
2022-07-25T08:44:28.218Z,30.36
2022-07-25T08:49:36.389Z,29.89
2022-07-25T08:54:43.879Z,30.13
2022-07-25T08:59:51.649Z,29.83
2022-07-25T09:05:06.636Z,29.82
2022-07-25T09:10:14.533Z,29.97
2022-07-25T09:15:22.698Z,29.3
2022-07-25T09:20:30.280Z,29.5
2022-07-25T09:25:37.336Z,28.36
2022-07-25T09:30:45.431Z,27.76
2022-07-25T09:35:51.948Z,27.38
2022-07-25T09:41:00.231Z,27.07
2022-07-25T09:46:08.907Z,26.89
2022-07-25T09:51:17.766Z,26.84
2022-07-25T09:56:25.220Z,26.75
2022-07-25T10:01:32.419Z,26.5
2022-07-25T10:06:40.199Z,26.14
2022-07-25T10:11:49.097Z,25.64
2022-07-25T10:16:57.037Z,26.35
2022-07-25T10:22:04.422Z,26.28
2022-07-25T10:27:34.021Z,26.56
2022-07-25T10:27:34.392Z,26.56
2022-07-25T10:32:42.208Z,25.96
2022-07-25T10:37:49.754Z,26.59
2022-07-25T10:42:57.925Z,27.56
2022-07-25T10:48:06.016Z,26.76
2022-07-25T10:53:13.922Z,27.68
2022-07-25T10:58:22.863Z,27.6
2022-07-25T11:03:30.312Z,27.24
2022-07-25T11:08:37.386Z,27.12
2022-07-25T11:13:44.590Z,26.68
2022-07-25T11:18:52.993Z,25.88
2022-07-25T11:24:00.807Z,25.42
2022-07-25T11:29:09.268Z,25.63
2022-07-25T11:34:17.225Z,25.57
2022-07-25T11:39:24.690Z,25.91
2022-07-25T11:44:32.259Z,25.6
2022-07-25T11:49:38.950Z,26.42
2022-07-25T11:54:46.613Z,26.93
2022-07-25T11:59:53.800Z,27.22
2022-07-25T12:05:02.341Z,27.25
2022-07-25T12:10:10.439Z,27.86
2022-07-25T12:15:18.066Z,29.13
2022-07-25T12:20:26.117Z,30.0
2022-07-25T12:25:32.573Z,31.36
2022-07-25T12:30:40.263Z,31.7
2022-07-25T12:35:48.516Z,33.41
2022-07-25T12:40:55.754Z,33.89
2022-07-25T12:46:03.978Z,34.2
2022-07-25T12:51:11.559Z,34.64
2022-07-25T12:56:18.812Z,34.85
2022-07-25T13:01:27.740Z,34.74
2022-07-25T13:06:35.166Z,34.47
2022-07-25T13:11:42.295Z,34.45
2022-07-25T13:16:50.373Z,34.55
2022-07-25T13:21:57.383Z,33.54
2022-07-25T13:27:04.695Z,33.49
2022-07-25T13:32:13.640Z,33.67
2022-07-25T13:37:21.483Z,34.12
2022-07-25T13:42:28.833Z,34.27
2022-07-25T13:47:36.635Z,34.41
2022-07-25T13:52:43.829Z,34.36
2022-07-25T13:57:52.554Z,35.04
2022-07-25T14:03:00.739Z,34.53
2022-07-25T14:08:07.301Z,35.78
2022-07-25T14:13:15.785Z,35.82
2022-07-25T14:18:23.623Z,35.36
2022-07-25T14:23:31.336Z,34.88
2022-07-25T14:28:37.425Z,35.03
2022-07-25T14:33:44.575Z,34.99
2022-07-25T14:38:53.587Z,34.63
2022-07-25T14:44:00.956Z,34.68
2022-07-25T14:49:18.239Z,33.63
2022-07-25T14:54:26.071Z,33.38
2022-07-25T14:59:33.027Z,32.41
2022-07-25T15:04:39.317Z,31.76
2022-07-25T15:09:47.188Z,30.35
2022-07-25T15:14:54.625Z,30.09
2022-07-25T15:20:02.234Z,29.05
2022-07-25T15:25:10.664Z,28.37
2022-07-25T15:30:18.448Z,28.6
2022-07-25T15:35:25.051Z,28.08
2022-07-25T15:40:33.465Z,27.43
2022-07-25T15:45:40.100Z,26.86
2022-07-25T15:50:47.938Z,26.28
2022-07-25T15:55:56.026Z,26.53
2022-07-25T16:01:04.760Z,27.21
2022-07-25T16:06:12.748Z,28.7
2022-07-25T16:11:20.936Z,29.92
2022-07-25T16:16:27.785Z,30.92
2022-07-25T16:21:35.269Z,30.87
2022-07-25T16:26:42.758Z,31.6
2022-07-25T16:31:50.949Z,32.58
2022-07-25T16:36:58.365Z,33.36
2022-07-25T16:42:06.295Z,34.24
2022-07-25T16:47:14.228Z,34.36
2022-07-25T16:52:21.427Z,35.54
2022-07-25T16:57:28.264Z,35.33
2022-07-25T17:02:36.391Z,36.2
2022-07-25T17:07:43.263Z,37.23
2022-07-25T17:12:50.456Z,37.26
2022-07-25T17:17:58.177Z,37.75
2022-07-25T17:23:04.118Z,37.74
2022-07-25T17:28:11.082Z,38.76
2022-07-25T17:33:18.230Z,39.45
2022-07-25T17:38:24.261Z,39.58
2022-07-25T17:43:30.742Z,39.21
2022-07-25T17:48:38.536Z,38.97
2022-07-25T17:53:48.026Z,39.26
2022-07-25T17:58:55.342Z,39.58
2022-07-25T18:04:04.409Z,39.9
2022-07-25T18:09:12.581Z,40.3
2022-07-25T18:14:19.780Z,41.09
2022-07-25T18:19:26.580Z,42.4
2022-07-25T18:24:35.715Z,43.4
2022-07-25T18:29:44.323Z,44.27
2022-07-25T18:34:51.250Z,46.09
2022-07-25T18:39:59.641Z,46.83
2022-07-25T18:45:07.664Z,47.32
2022-07-25T18:50:14.661Z,48.26
2022-07-25T18:55:22.488Z,48.96
2022-07-25T19:00:29.702Z,49.62
2022-07-25T19:05:38.161Z,49.67
2022-07-25T19:10:46.339Z,49.62
2022-07-25T19:15:53.260Z,49.76
2022-07-25T19:21:00.465Z,50.25
2022-07-25T19:26:07.982Z,50.42
2022-07-25T19:31:15.812Z,50.68
2022-07-25T19:36:23.327Z,51.15
2022-07-25T19:41:31.985Z,50.71
2022-07-25T19:46:40.965Z,50.8
2022-07-25T19:51:46.817Z,51.43
2022-07-25T19:56:55.248Z,52.16
2022-07-25T20:02:01.899Z,52.72
2022-07-25T20:07:09.068Z,53.23
2022-07-25T20:12:17.830Z,53.64
2022-07-25T20:17:25.933Z,53.9
2022-07-25T20:22:37.747Z,54.26
2022-07-25T20:27:45.541Z,54.72
2022-07-25T20:32:52.736Z,55.32
2022-07-25T20:37:59.336Z,55.3
2022-07-25T20:43:07.856Z,55.55
2022-07-25T20:48:16.081Z,55.78
2022-07-25T20:53:24.421Z,55.82
2022-07-25T20:58:31.939Z,57.62
2022-07-25T21:03:40.181Z,57.44
2022-07-25T21:08:47.662Z,57.68
2022-07-25T21:13:56.618Z,58.67
2022-07-25T21:19:03.931Z,58.94
2022-07-25T21:24:12.127Z,58.79
2022-07-25T21:29:19.964Z,59.23
2022-07-25T21:35:05.858Z,59.51
2022-07-25T21:40:13.290Z,59.15
2022-07-25T21:45:22.110Z,59.31
2022-07-25T21:50:29.919Z,59.56
2022-07-25T21:55:37.908Z,60.03
2022-07-25T22:00:45.106Z,60.2
2022-07-25T22:05:53.411Z,60.48
2022-07-25T22:11:00.772Z,60.98
2022-07-25T22:16:09.428Z,61.52
2022-07-25T22:21:17.653Z,61.94
2022-07-25T22:26:26.290Z,62.35
2022-07-25T22:31:39.180Z,62.23
2022-07-25T22:36:46.035Z,61.73
2022-07-25T22:42:30.025Z,61.71
2022-07-25T22:47:38.767Z,62.55
2022-07-25T22:52:46.914Z,63.28
2022-07-25T22:57:53.528Z,63.07
2022-07-25T23:03:01.900Z,62.73
2022-07-25T23:08:09.907Z,62.39
2022-07-25T23:13:17.011Z,62.49
2022-07-25T23:18:24.697Z,62.47
2022-07-25T23:23:32.152Z,62.5
2022-07-25T23:28:38.691Z,63.75
2022-07-25T23:33:47.509Z,63.7
2022-07-25T23:38:55.620Z,63.11
2022-07-25T23:44:03.455Z,62.72
2022-07-25T23:49:10.918Z,63.54
2022-07-25T23:54:18.319Z,63.33
